sensor_id;sensor_type;location;lat;lon;timestamp;pressure;altitude;pressure_sealevel;temperature;humidity
56912;BME280;42800;53.928;27.662;2023-02-21T00:02:37;96568.94;;;2.85;100.00
56912;BME280;42800;53.928;27.662;2023-02-21T00:05:21;96585.94;;;2.82;100.00
56912;BME280;42800;53.928;27.662;2023-02-21T00:08:06;96596.41;;;2.87;100.00
56912;BME280;42800;53.928;27.662;2023-02-21T00:10:50;96609.16;;;2.87;100.00
56912;BME280;42800;53.928;27.662;2023-02-21T00:13:35;96621.09;;;2.82;100.00
56912;BME280;42800;53.928;27.662;2023-02-21T00:16:20;96634.66;;;2.86;100.00
56912;BME280;42800;53.928;27.662;2023-02-21T00:19:04;96652.00;;;2.77;100.00
56912;BME280;42800;53.928;27.662;2023-02-21T00:21:49;96651.25;;;2.80;100.00
56912;BME280;42800;53.928;27.662;2023-02-21T00:24:33;96651.03;;;2.55;100.00
56912;BME280;42800;53.928;27.662;2023-02-21T00:27:17;96640.72;;;2.68;100.00
56912;BME280;42800;53.928;27.662;2023-02-21T00:30:03;96633.72;;;2.64;100.00
56912;BME280;42800;53.928;27.662;2023-02-21T00:32:48;96634.88;;;2.66;100.00
56912;BME280;42800;53.928;27.662;2023-02-21T00:35:32;96644.59;;;2.71;100.00
56912;BME280;42800;53.928;27.662;2023-02-21T00:38:17;96664.72;;;2.73;100.00
56912;BME280;42800;53.928;27.662;2023-02-21T00:41:01;96671.41;;;2.87;100.00
56912;BME280;42800;53.928;27.662;2023-02-21T00:43:46;96687.91;;;2.74;100.00
56912;BME280;42800;53.928;27.662;2023-02-21T00:46:31;96681.00;;;2.77;100.00
56912;BME280;42800;53.928;27.662;2023-02-21T00:49:15;96687.59;;;2.83;100.00
56912;BME280;42800;53.928;27.662;2023-02-21T00:51:59;96704.53;;;2.76;100.00
56912;BME280;42800;53.928;27.662;2023-02-21T00:54:44;96719.31;;;2.86;100.00
56912;BME280;42800;53.928;27.662;2023-02-21T00:57:28;96724.81;;;2.93;100.00
56912;BME280;42800;53.928;27.662;2023-02-21T01:00:13;96736.41;;;2.94;100.00
56912;BME280;42800;53.928;27.662;2023-02-21T01:02:59;96755.28;;;2.87;100.00
56912;BME280;42800;53.928;27.662;2023-02-21T01:05:43;96754.50;;;2.86;100.00
56912;BME280;42800;53.928;27.662;2023-02-21T01:08:28;96755.31;;;2.90;100.00
56912;BME280;42800;53.928;27.662;2023-02-21T01:11:14;96760.78;;;2.97;100.00
56912;BME280;42800;53.928;27.662;2023-02-21T01:13:58;96768.94;;;3.01;100.00
56912;BME280;42800;53.928;27.662;2023-02-21T01:16:43;96786.75;;;3.05;100.00
56912;BME280;42800;53.928;27.662;2023-02-21T01:19:27;96781.75;;;3.04;100.00
56912;BME280;42800;53.928;27.662;2023-02-21T01:22:11;96783.63;;;3.00;100.00
56912;BME280;42800;53.928;27.662;2023-02-21T01:24:56;96797.34;;;2.77;100.00
56912;BME280;42800;53.928;27.662;2023-02-21T01:27:41;96809.28;;;2.76;100.00
56912;BME280;42800;53.928;27.662;2023-02-21T01:30:25;96798.31;;;2.62;100.00
56912;BME280;42800;53.928;27.662;2023-02-21T01:33:12;96788.50;;;2.83;100.00
56912;BME280;42800;53.928;27.662;2023-02-21T01:35:58;96798.81;;;2.71;100.00
56912;BME280;42800;53.928;27.662;2023-02-21T01:38:42;96791.28;;;2.91;100.00
56912;BME280;42800;53.928;27.662;2023-02-21T01:41:26;96790.03;;;2.81;100.00
56912;BME280;42800;53.928;27.662;2023-02-21T01:47:10;96800.72;;;2.67;100.00
56912;BME280;42800;53.928;27.662;2023-02-21T01:49:54;96804.34;;;2.85;100.00
56912;BME280;42800;53.928;27.662;2023-02-21T01:52:39;96791.22;;;2.83;100.00
56912;BME280;42800;53.928;27.662;2023-02-21T01:55:24;96795.47;;;2.85;100.00
56912;BME280;42800;53.928;27.662;2023-02-21T01:58:09;96789.34;;;2.91;100.00
56912;BME280;42800;53.928;27.662;2023-02-21T02:00:53;96792.09;;;2.95;100.00
56912;BME280;42800;53.928;27.662;2023-02-21T02:03:38;96802.66;;;3.07;100.00
56912;BME280;42800;53.928;27.662;2023-02-21T02:06:24;96812.25;;;3.01;100.00
56912;BME280;42800;53.928;27.662;2023-02-21T02:09:16;96812.81;;;3.21;100.00
56912;BME280;42800;53.928;27.662;2023-02-21T02:12:15;96815.34;;;3.03;100.00
56912;BME280;42800;53.928;27.662;2023-02-21T02:18:01;96824.78;;;3.20;100.00
56912;BME280;42800;53.928;27.662;2023-02-21T02:21:01;96812.66;;;3.03;100.00
56912;BME280;42800;53.928;27.662;2023-02-21T02:23:52;96836.56;;;2.94;100.00
56912;BME280;42800;53.928;27.662;2023-02-21T02:32:55;96836.19;;;2.99;100.00
56912;BME280;42800;53.928;27.662;2023-02-21T02:35:30;96841.59;;;2.99;100.00
56912;BME280;42800;53.928;27.662;2023-02-21T02:38:03;96823.13;;;3.04;100.00
56912;BME280;42800;53.928;27.662;2023-02-21T02:40:37;96824.66;;;3.05;100.00
56912;BME280;42800;53.928;27.662;2023-02-21T02:43:14;96843.16;;;3.00;100.00
56912;BME280;42800;53.928;27.662;2023-02-21T02:45:44;96843.38;;;2.80;100.00
56912;BME280;42800;53.928;27.662;2023-02-21T02:48:14;96839.81;;;2.76;100.00
56912;BME280;42800;53.928;27.662;2023-02-21T02:50:45;96852.44;;;2.99;100.00
56912;BME280;42800;53.928;27.662;2023-02-21T02:53:16;96861.94;;;2.82;100.00
56912;BME280;42800;53.928;27.662;2023-02-21T02:55:47;96861.56;;;2.83;100.00
56912;BME280;42800;53.928;27.662;2023-02-21T02:58:16;96874.44;;;2.94;100.00
56912;BME280;42800;53.928;27.662;2023-02-21T03:00:49;96860.59;;;3.02;100.00
56912;BME280;42800;53.928;27.662;2023-02-21T03:03:33;96862.56;;;3.05;100.00
56912;BME280;42800;53.928;27.662;2023-02-21T03:06:22;96860.59;;;3.02;100.00
56912;BME280;42800;53.928;27.662;2023-02-21T03:08:52;96864.16;;;2.76;100.00
56912;BME280;42800;53.928;27.662;2023-02-21T03:11:23;96862.63;;;2.75;100.00
56912;BME280;42800;53.928;27.662;2023-02-21T03:13:53;96867.19;;;3.05;100.00
56912;BME280;42800;53.928;27.662;2023-02-21T03:16:26;96854.50;;;2.75;100.00
56912;BME280;42800;53.928;27.662;2023-02-21T03:18:56;96847.78;;;2.62;100.00
56912;BME280;42800;53.928;27.662;2023-02-21T03:21:28;96837.00;;;2.66;100.00
56912;BME280;42800;53.928;27.662;2023-02-21T03:23:59;96841.19;;;2.93;100.00
56912;BME280;42800;53.928;27.662;2023-02-21T03:26:29;96842.50;;;2.73;100.00
56912;BME280;42800;53.928;27.662;2023-02-21T03:28:58;96834.31;;;2.66;100.00
56912;BME280;42800;53.928;27.662;2023-02-21T03:31:28;96834.91;;;2.52;100.00
56912;BME280;42800;53.928;27.662;2023-02-21T03:33:56;96814.16;;;2.63;100.00
56912;BME280;42800;53.928;27.662;2023-02-21T03:36:22;96809.75;;;2.81;100.00
56912;BME280;42800;53.928;27.662;2023-02-21T03:38:49;96814.50;;;2.95;100.00
56912;BME280;42800;53.928;27.662;2023-02-21T03:41:16;96818.63;;;2.82;100.00
56912;BME280;42800;53.928;27.662;2023-02-21T03:43:42;96810.91;;;2.80;100.00
56912;BME280;42800;53.928;27.662;2023-02-21T03:46:08;96807.59;;;2.98;100.00
56912;BME280;42800;53.928;27.662;2023-02-21T03:48:34;96815.38;;;2.66;100.00
56912;BME280;42800;53.928;27.662;2023-02-21T03:51:00;96810.78;;;2.36;100.00
56912;BME280;42800;53.928;27.662;2023-02-21T03:53:27;96788.38;;;2.35;100.00
56912;BME280;42800;53.928;27.662;2023-02-21T03:55:54;96769.09;;;2.74;100.00
56912;BME280;42800;53.928;27.662;2023-02-21T03:58:20;96761.34;;;2.76;100.00
56912;BME280;42800;53.928;27.662;2023-02-21T04:00:46;96772.19;;;2.76;100.00
56912;BME280;42800;53.928;27.662;2023-02-21T04:03:13;96786.94;;;2.82;100.00
56912;BME280;42800;53.928;27.662;2023-02-21T04:05:39;96778.78;;;2.42;100.00
56912;BME280;42800;53.928;27.662;2023-02-21T04:08:05;96768.38;;;2.81;100.00
56912;BME280;42800;53.928;27.662;2023-02-21T04:10:32;96775.28;;;2.75;100.00
56912;BME280;42800;53.928;27.662;2023-02-21T04:12:58;96785.09;;;2.90;100.00
56912;BME280;42800;53.928;27.662;2023-02-21T04:15:25;96801.41;;;2.60;100.00
56912;BME280;42800;53.928;27.662;2023-02-21T04:17:52;96788.75;;;2.71;100.00
56912;BME280;42800;53.928;27.662;2023-02-21T04:20:18;96782.72;;;2.85;100.00
56912;BME280;42800;53.928;27.662;2023-02-21T04:22:44;96789.66;;;2.49;100.00
56912;BME280;42800;53.928;27.662;2023-02-21T04:25:10;96775.19;;;2.68;100.00
56912;BME280;42800;53.928;27.662;2023-02-21T04:27:37;96773.09;;;2.91;100.00
56912;BME280;42800;53.928;27.662;2023-02-21T04:30:04;96785.47;;;2.51;100.00
56912;BME280;42800;53.928;27.662;2023-02-21T04:32:30;96770.97;;;2.70;100.00
56912;BME280;42800;53.928;27.662;2023-02-21T04:34:56;96779.28;;;2.51;100.00
56912;BME280;42800;53.928;27.662;2023-02-21T04:37:23;96762.06;;;2.70;100.00
56912;BME280;42800;53.928;27.662;2023-02-21T04:39:49;96763.31;;;2.79;100.00
56912;BME280;42800;53.928;27.662;2023-02-21T04:42:15;96768.53;;;2.58;100.00
56912;BME280;42800;53.928;27.662;2023-02-21T04:44:41;96762.78;;;2.63;100.00
56912;BME280;42800;53.928;27.662;2023-02-21T04:47:08;96763.84;;;2.92;100.00
56912;BME280;42800;53.928;27.662;2023-02-21T04:49:34;96778.16;;;2.96;100.00
56912;BME280;42800;53.928;27.662;2023-02-21T04:52:01;96784.38;;;2.97;100.00
56912;BME280;42800;53.928;27.662;2023-02-21T04:54:27;96787.19;;;2.67;100.00
56912;BME280;42800;53.928;27.662;2023-02-21T04:56:53;96780.44;;;2.87;100.00
56912;BME280;42800;53.928;27.662;2023-02-21T04:59:19;96787.88;;;2.60;100.00
56912;BME280;42800;53.928;27.662;2023-02-21T05:01:45;96777.00;;;2.94;100.00
56912;BME280;42800;53.928;27.662;2023-02-21T05:04:12;96769.47;;;2.76;100.00
56912;BME280;42800;53.928;27.662;2023-02-21T05:06:39;96751.00;;;2.86;100.00
56912;BME280;42800;53.928;27.662;2023-02-21T05:09:05;96783.38;;;2.75;100.00
56912;BME280;42800;53.928;27.662;2023-02-21T05:11:32;96780.56;;;2.64;100.00
56912;BME280;42800;53.928;27.662;2023-02-21T05:13:59;96772.97;;;2.77;100.00
56912;BME280;42800;53.928;27.662;2023-02-21T05:16:25;96790.84;;;3.29;100.00
56912;BME280;42800;53.928;27.662;2023-02-21T05:18:52;96799.38;;;3.32;100.00
56912;BME280;42800;53.928;27.662;2023-02-21T05:21:19;96813.66;;;3.28;100.00
56912;BME280;42800;53.928;27.662;2023-02-21T05:23:46;96822.50;;;3.22;100.00
56912;BME280;42800;53.928;27.662;2023-02-21T05:26:22;96828.72;;;3.26;100.00
56912;BME280;42800;53.928;27.662;2023-02-21T05:28:49;96824.03;;;3.23;100.00
56912;BME280;42800;53.928;27.662;2023-02-21T05:31:16;96824.03;;;3.23;100.00
56912;BME280;42800;53.928;27.662;2023-02-21T05:33:42;96832.50;;;3.14;100.00
56912;BME280;42800;53.928;27.662;2023-02-21T05:36:08;96819.00;;;3.21;100.00
56912;BME280;42800;53.928;27.662;2023-02-21T05:38:43;96836.63;;;3.45;100.00
56912;BME280;42800;53.928;27.662;2023-02-21T05:41:10;96826.63;;;3.53;100.00
56912;BME280;42800;53.928;27.662;2023-02-21T05:43:36;96818.78;;;3.41;100.00
56912;BME280;42800;53.928;27.662;2023-02-21T05:46:02;96812.66;;;3.47;100.00
56912;BME280;42800;53.928;27.662;2023-02-21T05:48:28;96810.28;;;3.42;100.00
56912;BME280;42800;53.928;27.662;2023-02-21T05:50:54;96804.84;;;3.39;100.00
56912;BME280;42800;53.928;27.662;2023-02-21T05:53:21;96799.94;;;3.55;100.00
56912;BME280;42800;53.928;27.662;2023-02-21T05:55:47;96792.59;;;3.59;100.00
56912;BME280;42800;53.928;27.662;2023-02-21T05:58:14;96781.00;;;3.62;100.00
56912;BME280;42800;53.928;27.662;2023-02-21T06:00:40;96763.03;;;3.36;100.00
56912;BME280;42800;53.928;27.662;2023-02-21T06:03:06;96785.59;;;3.51;100.00
56912;BME280;42800;53.928;27.662;2023-02-21T06:05:33;96782.53;;;3.56;100.00
56912;BME280;42800;53.928;27.662;2023-02-21T06:07:59;96766.25;;;3.56;100.00
56912;BME280;42800;53.928;27.662;2023-02-21T06:10:25;96779.50;;;3.65;100.00
56912;BME280;42800;53.928;27.662;2023-02-21T06:12:52;96760.56;;;3.72;100.00
56912;BME280;42800;53.928;27.662;2023-02-21T06:15:19;96744.28;;;3.68;100.00
56912;BME280;42800;53.928;27.662;2023-02-21T06:17:45;96750.94;;;3.82;100.00
56912;BME280;42800;53.928;27.662;2023-02-21T06:20:13;96730.88;;;3.93;100.00
56912;BME280;42800;53.928;27.662;2023-02-21T06:22:39;96716.44;;;3.71;100.00
56912;BME280;42800;53.928;27.662;2023-02-21T06:25:06;96728.41;;;3.63;100.00
56912;BME280;42800;53.928;27.662;2023-02-21T06:27:33;96749.78;;;3.83;100.00
56912;BME280;42800;53.928;27.662;2023-02-21T06:29:59;96748.69;;;3.91;100.00
56912;BME280;42800;53.928;27.662;2023-02-21T06:32:26;96727.00;;;3.94;100.00
56912;BME280;42800;53.928;27.662;2023-02-21T06:34:52;96722.34;;;3.95;100.00
56912;BME280;42800;53.928;27.662;2023-02-21T06:37:18;96716.63;;;4.07;100.00
56912;BME280;42800;53.928;27.662;2023-02-21T06:39:45;96698.88;;;4.31;100.00
56912;BME280;42800;53.928;27.662;2023-02-21T06:42:12;96619.06;;;4.50;100.00
56912;BME280;42800;53.928;27.662;2023-02-21T06:44:39;96535.72;;;4.33;100.00
56912;BME280;42800;53.928;27.662;2023-02-21T06:47:06;96507.84;;;4.29;100.00
56912;BME280;42800;53.928;27.662;2023-02-21T06:49:32;96520.63;;;4.24;100.00
56912;BME280;42800;53.928;27.662;2023-02-21T06:51:59;96502.03;;;4.16;100.00
56912;BME280;42800;53.928;27.662;2023-02-21T06:54:25;96522.94;;;4.19;100.00
56912;BME280;42800;53.928;27.662;2023-02-21T06:56:52;96512.47;;;3.96;100.00
56912;BME280;42800;53.928;27.662;2023-02-21T06:59:18;96567.50;;;4.07;100.00
56912;BME280;42800;53.928;27.662;2023-02-21T07:01:44;96566.69;;;4.03;100.00
56912;BME280;42800;53.928;27.662;2023-02-21T07:04:11;96602.34;;;4.01;100.00
56912;BME280;42800;53.928;27.662;2023-02-21T07:06:38;96591.09;;;3.99;100.00
56912;BME280;42800;53.928;27.662;2023-02-21T07:09:04;96585.66;;;4.03;100.00
56912;BME280;42800;53.928;27.662;2023-02-21T07:11:30;96588.41;;;4.14;100.00
56912;BME280;42800;53.928;27.662;2023-02-21T07:13:58;96561.31;;;4.21;100.00
56912;BME280;42800;53.928;27.662;2023-02-21T07:16:24;96575.63;;;4.04;100.00
56912;BME280;42800;53.928;27.662;2023-02-21T07:18:51;96569.00;;;3.87;100.00
56912;BME280;42800;53.928;27.662;2023-02-21T07:21:20;96579.88;;;3.97;100.00
56912;BME280;42800;53.928;27.662;2023-02-21T07:23:47;96572.50;;;4.05;100.00
56912;BME280;42800;53.928;27.662;2023-02-21T07:26:13;96565.56;;;4.18;100.00
56912;BME280;42800;53.928;27.662;2023-02-21T07:28:40;96601.94;;;4.03;100.00
56912;BME280;42800;53.928;27.662;2023-02-21T07:31:06;96631.72;;;3.89;100.00
56912;BME280;42800;53.928;27.662;2023-02-21T07:33:35;96651.91;;;4.13;100.00
56912;BME280;42800;53.928;27.662;2023-02-21T07:36:01;96635.69;;;4.20;100.00
56912;BME280;42800;53.928;27.662;2023-02-21T07:38:29;96645.38;;;4.24;100.00
56912;BME280;42800;53.928;27.662;2023-02-21T07:40:56;96641.13;;;4.20;100.00
56912;BME280;42800;53.928;27.662;2023-02-21T07:43:23;96632.56;;;4.07;100.00
56912;BME280;42800;53.928;27.662;2023-02-21T07:45:50;96629.03;;;3.96;100.00
56912;BME280;42800;53.928;27.662;2023-02-21T07:48:16;96635.25;;;4.04;100.00
56912;BME280;42800;53.928;27.662;2023-02-21T07:50:43;96651.94;;;4.16;100.00
56912;BME280;42800;53.928;27.662;2023-02-21T07:53:11;96643.78;;;4.06;100.00
56912;BME280;42800;53.928;27.662;2023-02-21T07:55:38;96653.44;;;4.03;100.00
56912;BME280;42800;53.928;27.662;2023-02-21T07:58:04;96683.25;;;3.99;100.00
56912;BME280;42800;53.928;27.662;2023-02-21T08:00:31;96674.63;;;3.76;100.00
56912;BME280;42800;53.928;27.662;2023-02-21T08:02:57;96718.72;;;3.66;100.00
56912;BME280;42800;53.928;27.662;2023-02-21T08:05:24;96752.72;;;3.56;100.00
56912;BME280;42800;53.928;27.662;2023-02-21T08:07:50;96783.66;;;3.51;100.00
56912;BME280;42800;53.928;27.662;2023-02-21T08:10:20;96811.28;;;3.71;100.00
56912;BME280;42800;53.928;27.662;2023-02-21T08:12:48;96802.75;;;3.73;100.00
56912;BME280;42800;53.928;27.662;2023-02-21T08:15:14;96823.81;;;3.94;100.00
56912;BME280;42800;53.928;27.662;2023-02-21T08:17:40;96812.63;;;4.03;100.00
56912;BME280;42800;53.928;27.662;2023-02-21T08:20:07;96801.00;;;4.02;100.00
56912;BME280;42800;53.928;27.662;2023-02-21T08:22:35;96798.34;;;4.13;100.00
56912;BME280;42800;53.928;27.662;2023-02-21T08:25:01;96802.28;;;4.26;100.00
56912;BME280;42800;53.928;27.662;2023-02-21T08:27:28;96793.84;;;4.49;100.00
56912;BME280;42800;53.928;27.662;2023-02-21T08:29:54;96757.47;;;4.57;100.00
56912;BME280;42800;53.928;27.662;2023-02-21T08:32:21;96727.97;;;4.56;100.00
56912;BME280;42800;53.928;27.662;2023-02-21T08:34:48;96664.38;;;4.39;100.00
56912;BME280;42800;53.928;27.662;2023-02-21T08:37:14;96672.50;;;4.32;100.00
56912;BME280;42800;53.928;27.662;2023-02-21T08:39:44;96708.97;;;4.38;100.00
56912;BME280;42800;53.928;27.662;2023-02-21T08:42:11;96700.03;;;4.30;100.00
56912;BME280;42800;53.928;27.662;2023-02-21T08:44:37;96684.88;;;4.18;100.00
56912;BME280;42800;53.928;27.662;2023-02-21T08:47:04;96655.38;;;4.06;100.00
56912;BME280;42800;53.928;27.662;2023-02-21T08:49:30;96654.59;;;4.02;100.00
56912;BME280;42800;53.928;27.662;2023-02-21T08:51:57;96682.84;;;3.87;100.00
56912;BME280;42800;53.928;27.662;2023-02-21T08:54:23;96699.13;;;3.94;100.00
56912;BME280;42800;53.928;27.662;2023-02-21T08:56:49;96688.56;;;3.67;100.00
56912;BME280;42800;53.928;27.662;2023-02-21T08:59:16;96743.78;;;3.48;100.00
56912;BME280;42800;53.928;27.662;2023-02-21T09:01:42;96779.25;;;3.33;100.00
56912;BME280;42800;53.928;27.662;2023-02-21T09:04:09;96819.47;;;3.27;100.00
56912;BME280;42800;53.928;27.662;2023-02-21T09:06:35;96863.63;;;3.35;100.00
56912;BME280;42800;53.928;27.662;2023-02-21T09:09:01;96908.34;;;3.18;100.00
56912;BME280;42800;53.928;27.662;2023-02-21T09:11:28;96934.91;;;3.09;100.00
56912;BME280;42800;53.928;27.662;2023-02-21T09:13:54;96960.44;;;3.08;100.00
56912;BME280;42800;53.928;27.662;2023-02-21T09:16:20;96973.97;;;3.08;100.00
56912;BME280;42800;53.928;27.662;2023-02-21T09:18:53;97010.66;;;3.35;100.00
56912;BME280;42800;53.928;27.662;2023-02-21T09:21:20;96989.41;;;3.03;100.00
56912;BME280;42800;53.928;27.662;2023-02-21T09:23:46;97005.75;;;3.14;100.00
56912;BME280;42800;53.928;27.662;2023-02-21T09:26:13;97002.31;;;3.17;100.00
56912;BME280;42800;53.928;27.662;2023-02-21T09:28:40;97007.09;;;3.27;100.00
56912;BME280;42800;53.928;27.662;2023-02-21T09:31:08;97017.38;;;3.15;100.00
56912;BME280;42800;53.928;27.662;2023-02-21T09:33:35;97015.84;;;3.17;100.00
56912;BME280;42800;53.928;27.662;2023-02-21T09:36:06;97008.22;;;2.96;100.00
56912;BME280;42800;53.928;27.662;2023-02-21T09:38:33;97026.00;;;3.24;100.00
56912;BME280;42800;53.928;27.662;2023-02-21T09:41:01;97008.59;;;2.95;100.00
56912;BME280;42800;53.928;27.662;2023-02-21T09:43:31;96983.00;;;2.89;100.00
56912;BME280;42800;53.928;27.662;2023-02-21T09:46:01;96970.50;;;2.77;100.00
56912;BME280;42800;53.928;27.662;2023-02-21T09:48:28;96963.03;;;2.67;100.00
56912;BME280;42800;53.928;27.662;2023-02-21T09:50:58;96969.16;;;2.64;100.00
56912;BME280;42800;53.928;27.662;2023-02-21T09:53:27;96980.84;;;2.71;100.00
56912;BME280;42800;53.928;27.662;2023-02-21T09:55:58;96983.75;;;2.86;100.00
56912;BME280;42800;53.928;27.662;2023-02-21T09:58:25;96980.19;;;3.12;100.00
56912;BME280;42800;53.928;27.662;2023-02-21T10:00:52;96938.88;;;3.18;100.00
56912;BME280;42800;53.928;27.662;2023-02-21T10:03:43;96899.31;;;3.44;100.00
56912;BME280;42800;53.928;27.662;2023-02-21T10:06:19;96833.16;;;3.48;100.00
56912;BME280;42800;53.928;27.662;2023-02-21T10:08:52;96783.75;;;3.66;100.00
56912;BME280;42800;53.928;27.662;2023-02-21T10:11:31;96717.28;;;3.86;100.00
56912;BME280;42800;53.928;27.662;2023-02-21T10:14:08;96610.47;;;4.01;100.00
56912;BME280;42800;53.928;27.662;2023-02-21T10:16:41;96502.38;;;3.82;100.00
56912;BME280;42800;53.928;27.662;2023-02-21T10:19:14;96470.63;;;3.79;100.00
56912;BME280;42800;53.928;27.662;2023-02-21T10:21:44;96483.78;;;3.66;100.00
56912;BME280;42800;53.928;27.662;2023-02-21T10:24:13;96521.34;;;3.75;100.00
56912;BME280;42800;53.928;27.662;2023-02-21T10:26:44;96557.34;;;3.75;100.00
56912;BME280;42800;53.928;27.662;2023-02-21T10:29:21;96591.06;;;3.82;100.00
56912;BME280;42800;53.928;27.662;2023-02-21T10:31:49;96641.75;;;3.74;100.00
56912;BME280;42800;53.928;27.662;2023-02-21T10:34:22;96708.41;;;3.93;100.00
56912;BME280;42800;53.928;27.662;2023-02-21T10:36:49;96704.44;;;3.72;100.00
56912;BME280;42800;53.928;27.662;2023-02-21T10:39:18;96735.50;;;3.89;100.00
56912;BME280;42800;53.928;27.662;2023-02-21T10:41:46;96747.16;;;3.97;100.00
56912;BME280;42800;53.928;27.662;2023-02-21T10:44:16;96781.56;;;3.89;100.00
56912;BME280;42800;53.928;27.662;2023-02-21T10:46:49;96815.75;;;4.08;100.00
56912;BME280;42800;53.928;27.662;2023-02-21T10:49:22;96768.13;;;4.11;100.00
56912;BME280;42800;53.928;27.662;2023-02-21T10:52:04;96755.31;;;4.04;100.00
56912;BME280;42800;53.928;27.662;2023-02-21T10:54:30;96762.56;;;3.82;100.00
56912;BME280;42800;53.928;27.662;2023-02-21T10:56:58;96821.88;;;3.94;100.00
56912;BME280;42800;53.928;27.662;2023-02-21T10:59:27;96794.00;;;3.90;100.00
56912;BME280;42800;53.928;27.662;2023-02-21T11:01:55;96775.59;;;3.62;100.00
56912;BME280;42800;53.928;27.662;2023-02-21T11:04:25;96812.72;;;3.54;100.00
56912;BME280;42800;53.928;27.662;2023-02-21T11:06:55;96850.53;;;3.40;100.00
56912;BME280;42800;53.928;27.662;2023-02-21T11:09:32;96928.25;;;3.40;100.00
56912;BME280;42800;53.928;27.662;2023-02-21T11:12:05;96977.25;;;3.61;100.00
56912;BME280;42800;53.928;27.662;2023-02-21T11:14:34;97002.94;;;3.74;100.00
56912;BME280;42800;53.928;27.662;2023-02-21T11:17:20;96974.47;;;3.54;100.00
56912;BME280;42800;53.928;27.662;2023-02-21T11:19:50;96996.19;;;3.58;100.00
56912;BME280;42800;53.928;27.662;2023-02-21T11:22:19;96953.09;;;3.45;100.00
56912;BME280;42800;53.928;27.662;2023-02-21T11:24:50;96964.84;;;3.57;100.00
56912;BME280;42800;53.928;27.662;2023-02-21T11:27:18;96952.88;;;3.61;100.00
56912;BME280;42800;53.928;27.662;2023-02-21T11:29:47;96955.69;;;3.75;100.00
56912;BME280;42800;53.928;27.662;2023-02-21T11:32:22;96938.13;;;4.03;100.00
56912;BME280;42800;53.928;27.662;2023-02-21T11:34:49;96873.09;;;4.07;100.00
56912;BME280;42800;53.928;27.662;2023-02-21T11:37:16;96775.69;;;3.76;100.00
56912;BME280;42800;53.928;27.662;2023-02-21T11:39:49;96791.63;;;3.89;100.00
56912;BME280;42800;53.928;27.662;2023-02-21T11:42:25;96808.34;;;3.98;100.00
56912;BME280;42800;53.928;27.662;2023-02-21T11:45:08;96777.41;;;4.10;100.00
56912;BME280;42800;53.928;27.662;2023-02-21T11:47:40;96746.31;;;3.86;100.00
56912;BME280;42800;53.928;27.662;2023-02-21T11:50:12;96805.47;;;3.73;100.00
56912;BME280;42800;53.928;27.662;2023-02-21T11:52:45;96876.13;;;3.98;100.00
56912;BME280;42800;53.928;27.662;2023-02-21T11:55:17;96869.94;;;4.01;100.00
56912;BME280;42800;53.928;27.662;2023-02-21T11:57:50;96864.34;;;3.76;100.00
56912;BME280;42800;53.928;27.662;2023-02-21T12:00:25;96905.53;;;3.96;100.00
56912;BME280;42800;53.928;27.662;2023-02-21T12:03:17;96878.72;;;3.80;100.00
56912;BME280;42800;53.928;27.662;2023-02-21T12:05:53;96879.03;;;3.71;100.00
56912;BME280;42800;53.928;27.662;2023-02-21T12:08:35;96856.78;;;3.48;100.00
56912;BME280;42800;53.928;27.662;2023-02-21T12:13:57;96987.03;;;3.02;100.00
56912;BME280;42800;53.928;27.662;2023-02-21T12:16:38;97087.41;;;2.90;100.00
56912;BME280;42800;53.928;27.662;2023-02-21T12:19:20;97128.56;;;3.02;100.00
56912;BME280;42800;53.928;27.662;2023-02-21T12:22:00;97165.44;;;2.84;100.00
56912;BME280;42800;53.928;27.662;2023-02-21T12:24:45;97226.47;;;3.04;100.00
56912;BME280;42800;53.928;27.662;2023-02-21T12:27:22;97208.78;;;3.11;100.00
56912;BME280;42800;53.928;27.662;2023-02-21T12:30:04;97212.38;;;3.18;100.00
56912;BME280;42800;53.928;27.662;2023-02-21T12:32:48;97204.00;;;3.27;100.00
56912;BME280;42800;53.928;27.662;2023-02-21T12:38:42;97174.88;;;3.47;100.00
56912;BME280;42800;53.928;27.662;2023-02-21T12:41:22;97136.03;;;3.69;100.00
56912;BME280;42800;53.928;27.662;2023-02-21T12:43:54;97044.59;;;3.63;100.00
56912;BME280;42800;53.928;27.662;2023-02-21T12:46:27;97000.56;;;3.69;100.00
56912;BME280;42800;53.928;27.662;2023-02-21T12:49:00;96972.53;;;3.54;100.00
56912;BME280;42800;53.928;27.662;2023-02-21T12:51:34;96965.16;;;3.51;100.00
56912;BME280;42800;53.928;27.662;2023-02-21T12:54:04;96952.50;;;3.63;100.00
56912;BME280;42800;53.928;27.662;2023-02-21T12:56:35;96972.19;;;3.60;100.00
56912;BME280;42800;53.928;27.662;2023-02-21T12:59:09;96974.19;;;3.66;100.00
56912;BME280;42800;53.928;27.662;2023-02-21T13:01:42;96913.59;;;3.41;100.00
56912;BME280;42800;53.928;27.662;2023-02-21T13:04:17;96883.25;;;3.24;100.00
56912;BME280;42800;53.928;27.662;2023-02-21T13:06:51;96935.56;;;3.32;100.00
56912;BME280;42800;53.928;27.662;2023-02-21T13:09:24;96939.31;;;3.20;100.00
56912;BME280;42800;53.928;27.662;2023-02-21T13:11:55;96961.09;;;3.31;100.00
56912;BME280;42800;53.928;27.662;2023-02-21T13:14:25;96979.19;;;3.23;100.00
56912;BME280;42800;53.928;27.662;2023-02-21T13:16:53;97039.03;;;3.15;100.00
56912;BME280;42800;53.928;27.662;2023-02-21T13:19:20;97187.53;;;2.90;100.00
56912;BME280;42800;53.928;27.662;2023-02-21T13:21:56;97319.72;;;2.45;100.00
56912;BME280;42800;53.928;27.662;2023-02-21T13:24:35;97475.31;;;2.23;100.00
56912;BME280;42800;53.928;27.662;2023-02-21T13:27:26;97565.25;;;2.20;100.00
56912;BME280;42800;53.928;27.662;2023-02-21T13:30:02;97603.09;;;2.20;100.00
56912;BME280;42800;53.928;27.662;2023-02-21T13:32:36;97621.66;;;2.22;100.00
56912;BME280;42800;53.928;27.662;2023-02-21T13:35:05;97627.59;;;2.11;100.00